Time;durP1;ratioP1;P1;durP2;ratioP2;P2;SDS_P1;SDS_P2;PMS_P1;PMS_P2;Temp;Humidity;BMP_temperature;BMP_pressure;BME280_temperature;BME280_humidity;BME280_pressure;Samples;Min_cycle;Max_cycle;Signal;HPM_P1;HPM_P2
2022/09/12 00:01:12;;;;;;;1.93;1.73;;;9.60;99.90;9.00;100199;;;;553390;255;24180;-77
2022/09/12 00:03:40;;;;;;;4.83;2.30;;;9.60;99.90;9.00;100199;;;;563159;254;24180;-75
2022/09/12 00:06:17;;;;;;;1.70;1.67;;;9.50;99.90;9.00;100203;;;;555051;254;24161;-79
2022/09/12 00:08:45;;;;;;;5.77;1.90;;;9.50;99.90;9.00;100199;;;;554770;255;24152;-78
2022/09/12 00:11:13;;;;;;;1.90;1.80;;;9.60;99.90;9.00;100199;;;;554844;255;24159;-78
2022/09/12 00:13:45;;;;;;;3.40;2.20;;;9.60;99.90;9.10;100200;;;;562708;254;24138;-77
2022/09/12 00:16:22;;;;;;;6.03;2.10;;;9.60;99.90;9.10;100202;;;;553355;255;25233;-77
2022/09/12 00:18:52;;;;;;;1.97;1.77;;;9.60;99.90;9.20;100195;;;;562270;254;24216;-78
2022/09/12 00:21:21;;;;;;;2.93;1.73;;;9.70;99.90;9.20;100201;;;;553619;255;24194;-76
2022/09/12 00:23:45;;;;;;;4.93;1.80;;;9.70;99.90;9.20;100195;;;;554008;255;24150;-77
2022/09/12 00:26:13;;;;;;;5.07;1.83;;;9.70;99.90;9.20;100201;;;;562217;254;24146;-76
2022/09/12 00:28:41;;;;;;;2.87;2.03;;;9.70;99.90;9.20;100200;;;;553902;254;24168;-79
2022/09/12 00:31:09;;;;;;;3.90;1.90;;;9.80;99.90;9.30;100204;;;;553797;255;24151;-77
2022/09/12 00:33:37;;;;;;;1.63;1.47;;;9.80;99.90;9.20;100207;;;;562131;254;24172;-76
2022/09/12 00:36:05;;;;;;;2.60;2.00;;;9.80;99.90;9.20;100208;;;;552767;255;24150;-76
2022/09/12 00:38:37;;;;;;;3.80;1.80;;;9.80;99.90;9.30;100204;;;;561161;253;24158;-77
2022/09/12 00:41:01;;;;;;;2.93;2.10;;;9.80;99.90;9.30;100200;;;;552950;255;24153;-75
2022/09/12 00:43:35;;;;;;;3.33;1.63;;;9.80;99.90;9.30;100202;;;;552880;251;24244;-80
2022/09/12 00:46:06;;;;;;;2.23;2.00;;;9.80;99.90;9.30;100196;;;;561566;254;24179;-79
2022/09/12 00:48:46;;;;;;;3.10;2.00;;;9.90;99.90;9.30;100200;;;;561115;251;24171;-80
2022/09/12 00:51:14;;;;;;;5.73;2.10;;;9.90;99.90;9.30;100194;;;;560739;255;24136;-81
2022/09/12 00:53:42;;;;;;;1.70;1.60;;;9.80;99.90;9.20;100200;;;;552810;255;24149;-81
2022/09/12 00:56:10;;;;;;;3.30;1.83;;;9.80;99.90;9.20;100196;;;;562446;254;24229;-81
2022/09/12 00:58:44;;;;;;;5.03;1.83;;;9.80;99.90;9.20;100191;;;;561597;252;24217;-76
2022/09/12 01:01:15;;;;;;;2.23;1.57;;;9.70;99.90;9.10;100196;;;;561356;253;24147;-75
2022/09/12 01:03:40;;;;;;;2.83;1.83;;;9.70;99.90;9.10;100198;;;;553037;255;24154;-76
2022/09/12 01:06:16;;;;;;;1.97;1.33;;;9.60;99.90;9.10;100195;;;;552172;255;24151;-76
2022/09/12 01:08:44;;;;;;;6.10;1.63;;;9.60;99.90;9.10;100194;;;;560873;255;24150;-75
2022/09/12 01:11:12;;;;;;;1.77;1.57;;;9.70;99.90;9.10;100188;;;;561418;252;24160;-75
2022/09/12 01:13:40;;;;;;;2.27;1.83;;;9.70;99.90;9.10;100199;;;;553426;255;24158;-76
2022/09/12 01:16:08;;;;;;;1.53;1.33;;;9.70;99.90;9.10;100193;;;;563332;254;24146;-76
2022/09/12 01:19:10;;;;;;;2.63;1.50;;;9.60;99.90;9.10;100190;;;;554653;255;24137;-75
2022/09/12 01:22:16;;;;;;;1.60;1.50;;;9.60;99.90;9.00;100195;;;;561882;251;24149;-77
2022/09/12 01:24:59;;;;;;;4.10;1.63;;;9.60;99.90;9.00;100196;;;;553333;255;24210;-77
2022/09/12 01:27:33;;;;;;;4.70;2.03;;;9.50;99.90;9.00;100191;;;;562257;251;24166;-76
2022/09/12 01:30:37;;;;;;;1.70;1.60;;;9.50;99.90;8.90;100195;;;;562526;254;24150;-76
2022/09/12 01:33:41;;;;;;;2.00;1.80;;;9.50;99.90;8.90;100192;;;;554793;254;24154;-77
2022/09/12 01:36:12;;;;;;;2.13;1.93;;;9.40;99.90;8.90;100191;;;;562435;251;24153;-76
2022/09/12 01:38:58;;;;;;;1.87;1.37;;;9.40;99.90;8.90;100191;;;;562714;255;24205;-77
2022/09/12 01:41:28;;;;;;;3.90;1.73;;;9.40;99.90;8.90;100183;;;;563044;255;24138;-75
2022/09/12 01:44:23;;;;;;;4.03;2.00;;;9.40;99.90;8.90;100191;;;;555006;254;25191;-76
2022/09/12 01:47:09;;;;;;;2.60;1.73;;;9.40;99.90;8.90;100197;;;;561865;255;24217;-76
2022/09/12 01:49:38;;;;;;;2.73;1.60;;;9.40;99.90;8.90;100192;;;;562283;254;24165;-75
2022/09/12 01:52:17;;;;;;;2.20;2.00;;;9.40;99.90;8.90;100197;;;;561210;252;24264;-76
2022/09/12 01:54:51;;;;;;;2.07;1.97;;;9.40;99.90;8.90;100198;;;;562307;254;24164;-76
2022/09/12 01:57:24;;;;;;;3.17;1.77;;;9.40;99.90;8.90;100199;;;;561139;251;24202;-76
2022/09/12 01:59:50;;;;;;;4.50;1.90;;;9.40;99.90;8.90;100200;;;;561145;255;24195;-76
2022/09/12 02:02:38;;;;;;;2.63;2.43;;;9.40;99.90;8.80;100192;;;;561468;251;24144;-76
2022/09/12 02:05:09;;;;;;;3.80;1.97;;;9.40;99.90;8.80;100195;;;;555262;253;24196;-77
2022/09/12 02:07:40;;;;;;;1.83;1.73;;;9.40;99.90;8.80;100193;;;;565625;254;24145;-78
2022/09/12 02:10:20;;;;;;;4.57;2.47;;;9.40;99.90;8.80;100192;;;;546287;259;24172;-78
2022/09/12 02:13:03;;;;;;;2.10;2.00;;;9.40;99.90;8.80;100204;;;;546059;255;24077;-79
2022/09/12 02:15:34;;;;;;;4.00;1.67;;;9.40;99.90;8.80;100203;;;;555324;255;24224;-79
2022/09/12 02:18:03;;;;;;;4.80;2.20;;;9.40;99.90;8.80;100195;;;;553474;255;24218;-75
2022/09/12 02:20:31;;;;;;;4.53;1.80;;;9.30;99.90;8.80;100192;;;;556670;254;24192;-80
2022/09/12 02:22:59;;;;;;;2.47;1.63;;;9.40;99.90;8.90;100202;;;;556721;253;24181;-78
2022/09/12 02:25:27;;;;;;;2.27;2.07;;;9.40;99.90;9.00;100201;;;;557060;252;24164;-77
2022/09/12 02:28:07;;;;;;;4.93;2.77;;;9.50;99.90;9.00;100203;;;;558059;254;24175;-76
2022/09/12 02:30:44;;;;;;;3.07;1.83;;;9.50;99.90;9.00;100201;;;;557267;254;24190;-78
2022/09/12 02:33:25;;;;;;;4.37;1.90;;;9.50;99.90;9.00;100206;;;;555791;253;24139;-78
2022/09/12 02:36:12;;;;;;;5.40;1.63;;;9.50;99.90;9.00;100205;;;;557173;254;24170;-79
2022/09/12 02:38:41;;;;;;;1.90;1.80;;;9.50;99.90;9.00;100204;;;;560888;254;24158;-78
2022/09/12 02:41:12;;;;;;;2.20;2.00;;;9.60;99.90;9.00;100201;;;;557075;254;24168;-77
2022/09/12 02:43:40;;;;;;;6.23;1.80;;;9.50;99.90;9.00;100201;;;;557033;254;24160;-77
2022/09/12 02:46:07;;;;;;;3.70;2.50;;;9.60;99.90;9.00;100200;;;;555787;254;24156;-75
2022/09/12 02:48:35;;;;;;;2.40;1.83;;;9.60;99.90;9.00;100202;;;;545803;259;24176;-75
2022/09/12 02:51:03;;;;;;;2.10;1.87;;;9.60;99.90;9.00;100203;;;;553058;257;24245;-75
2022/09/12 02:53:34;;;;;;;1.90;1.80;;;9.50;99.90;9.00;100204;;;;553865;259;24164;-75
2022/09/12 02:56:03;;;;;;;2.17;1.80;;;9.50;99.90;9.00;100205;;;;562679;254;24170;-76
2022/09/12 02:58:27;;;;;;;1.97;1.73;;;9.50;99.90;9.00;100208;;;;553463;259;25201;-76
2022/09/12 03:01:32;;;;;;;6.70;2.00;;;9.50;99.90;9.00;100197;;;;563586;251;24161;-77
2022/09/12 03:04:19;;;;;;;4.37;1.97;;;9.50;99.90;9.00;100200;;;;545885;259;24150;-75
2022/09/12 03:07:11;;;;;;;4.73;1.70;;;9.50;99.90;8.90;100206;;;;544902;259;24250;-77
2022/09/12 03:10:21;;;;;;;1.70;1.60;;;9.40;99.90;8.90;100209;;;;553311;259;24182;-76
2022/09/12 03:13:10;;;;;;;1.47;1.47;;;9.40;99.90;8.90;100207;;;;537509;264;24213;-75
2022/09/12 03:16:02;;;;;;;2.17;1.97;;;9.40;99.90;8.80;100201;;;;554999;254;24150;-77
2022/09/12 03:18:55;;;;;;;1.83;1.63;;;9.40;99.90;8.80;100208;;;;555363;254;24149;-76
2022/09/12 03:21:31;;;;;;;5.07;2.10;;;9.40;99.90;8.80;100209;;;;563454;254;24156;-79
2022/09/12 03:24:11;;;;;;;2.30;2.10;;;9.40;99.90;8.80;100210;;;;563000;254;24207;-76
2022/09/12 03:26:47;;;;;;;3.53;2.20;;;9.30;99.90;8.70;100213;;;;554368;254;24174;-76
2022/09/12 03:29:15;;;;;;;2.00;1.90;;;9.30;99.90;8.70;100206;;;;556181;254;24152;-80
2022/09/12 03:31:55;;;;;;;1.67;1.50;;;9.30;99.90;8.70;100219;;;;555018;254;24178;-77
2022/09/12 03:34:23;;;;;;;3.17;2.00;;;9.20;99.90;8.70;100221;;;;555090;253;24166;-77
2022/09/12 03:36:51;;;;;;;5.57;2.07;;;9.20;99.90;8.60;100218;;;;554959;254;24164;-79
2022/09/12 03:39:19;;;;;;;2.77;1.67;;;9.20;99.90;8.70;100228;;;;555570;254;24152;-77
2022/09/12 03:41:47;;;;;;;4.80;2.40;;;9.20;99.90;8.70;100224;;;;556015;254;24132;-78
2022/09/12 03:44:16;;;;;;;2.37;2.17;;;9.20;99.90;8.70;100226;;;;555655;254;24147;-76
2022/09/12 03:46:44;;;;;;;2.27;2.07;;;9.20;99.90;8.60;100228;;;;563993;254;24143;-76
2022/09/12 03:49:12;;;;;;;3.87;2.30;;;9.20;99.90;8.70;100232;;;;563549;254;24176;-77
2022/09/12 03:51:43;;;;;;;4.07;2.07;;;9.20;99.90;8.60;100233;;;;555119;254;24202;-75
2022/09/12 03:54:08;;;;;;;4.17;2.27;;;9.20;99.90;8.60;100238;;;;555043;254;24154;-75
2022/09/12 03:56:36;;;;;;;3.57;1.90;;;9.10;99.90;8.60;100223;;;;563394;254;24139;-79
2022/09/12 03:59:10;;;;;;;2.10;1.90;;;9.20;99.90;8.70;100231;;;;555236;254;24131;-77
2022/09/12 04:01:36;;;;;;;2.67;1.80;;;9.20;99.90;8.80;100220;;;;563440;250;24159;-79
2022/09/12 04:04:03;;;;;;;2.10;2.00;;;9.30;99.90;8.80;100228;;;;555160;254;24135;-79
2022/09/12 04:06:31;;;;;;;2.33;2.10;;;9.40;99.90;8.80;100220;;;;555249;254;24165;-78
2022/09/12 04:08:59;;;;;;;2.70;1.60;;;9.40;99.90;8.80;100231;;;;555789;254;24146;-76
2022/09/12 04:11:27;;;;;;;3.03;2.10;;;9.30;99.90;8.70;100234;;;;555781;254;24168;-75
2022/09/12 04:13:55;;;;;;;2.03;1.93;;;9.30;99.90;8.70;100228;;;;555656;254;24172;-77
2022/09/12 04:16:22;;;;;;;5.53;1.93;;;9.30;99.90;8.70;100232;;;;555550;254;24180;-75
2022/09/12 04:18:50;;;;;;;4.30;2.20;;;9.30;99.90;8.70;100232;;;;555368;254;24141;-77
2022/09/12 04:21:18;;;;;;;3.77;2.07;;;9.30;99.90;8.80;100224;;;;555564;254;24139;-76
2022/09/12 04:23:49;;;;;;;3.53;2.10;;;9.30;99.90;8.80;100232;;;;563623;253;24145;-76
2022/09/12 04:26:17;;;;;;;10.10;1.93;;;9.30;99.90;8.80;100233;;;;555080;254;24150;-75
2022/09/12 04:28:42;;;;;;;4.33;2.33;;;9.30;99.90;8.80;100239;;;;555543;254;24192;-76
2022/09/12 04:31:14;;;;;;;3.40;1.93;;;9.30;99.90;8.80;100239;;;;556193;254;24094;-80
2022/09/12 04:33:40;;;;;;;3.60;1.87;;;9.30;99.90;8.80;100239;;;;555023;254;24155;-80
2022/09/12 04:36:15;;;;;;;2.57;1.97;;;9.40;99.90;8.90;100246;;;;563749;254;24141;-80
2022/09/12 04:38:39;;;;;;;2.23;2.03;;;9.40;99.90;9.00;100248;;;;555691;250;24163;-81
2022/09/12 04:41:13;;;;;;;2.37;2.17;;;9.50;99.90;9.10;100251;;;;555840;254;24155;-79
2022/09/12 04:43:45;;;;;;;3.13;2.10;;;9.60;99.90;9.10;100256;;;;564195;251;24160;-77
2022/09/12 04:46:09;;;;;;;3.50;1.67;;;9.70;99.90;9.10;100250;;;;555540;254;24186;-76
2022/09/12 04:48:37;;;;;;;2.07;1.83;;;9.70;99.90;9.20;100249;;;;556233;252;24136;-76
2022/09/12 04:51:11;;;;;;;6.80;1.90;;;9.70;99.90;9.20;100246;;;;565363;250;24216;-77
2022/09/12 04:53:41;;;;;;;1.80;1.70;;;9.70;99.90;9.20;100255;;;;556878;254;24136;-76
2022/09/12 04:56:06;;;;;;;2.00;1.90;;;9.80;99.90;9.30;100256;;;;563680;254;24177;-75
2022/09/12 04:58:38;;;;;;;2.70;1.97;;;9.90;99.90;9.50;100252;;;;564400;254;24159;-74
2022/09/12 05:01:08;;;;;;;3.37;2.00;;;10.00;99.90;9.50;100253;;;;555742;253;24187;-77
2022/09/12 05:03:42;;;;;;;2.43;2.10;;;10.10;99.90;9.50;100261;;;;563352;254;24208;-76
2022/09/12 05:06:04;;;;;;;2.10;1.90;;;10.10;99.90;9.60;100258;;;;559664;254;24255;-76
2022/09/12 05:08:35;;;;;;;2.27;2.07;;;10.10;99.90;9.70;100252;;;;555045;254;24151;-76
2022/09/12 05:11:06;;;;;;;2.37;2.17;;;10.20;99.90;9.90;100253;;;;554710;254;24154;-76
2022/09/12 05:13:31;;;;;;;3.50;2.30;;;10.40;99.90;10.10;100260;;;;554680;254;24204;-76
2022/09/12 05:15:58;;;;;;;4.63;2.60;;;10.60;99.90;10.60;100264;;;;554891;254;24181;-76
2022/09/12 05:18:30;;;;;;;2.30;2.10;;;11.00;99.90;12.30;100262;;;;554905;253;24153;-76
2022/09/12 05:20:54;;;;;;;2.70;1.80;;;12.40;99.90;14.30;100267;;;;555057;254;24157;-81
2022/09/12 05:23:23;;;;;;;15.27;2.00;;;14.30;99.90;16.20;100272;;;;565465;254;24180;-77
2022/09/12 05:25:57;;;;;;;4.33;1.83;;;16.20;99.90;17.80;100277;;;;555702;254;24134;-77
2022/09/12 05:28:21;;;;;;;1.20;1.20;;;17.90;99.90;18.60;100276;;;;554923;254;24138;-80
2022/09/12 05:30:49;;;;;;;3.00;1.70;;;18.80;99.90;19.80;100268;;;;555110;254;24146;-79
2022/09/12 05:33:17;;;;;;;1.50;1.40;;;19.90;99.90;21.10;100279;;;;554540;254;24143;-80
2022/09/12 05:35:45;;;;;;;3.57;1.53;;;21.30;99.90;22.40;100278;;;;555132;254;24119;-78
2022/09/12 05:38:13;;;;;;;1.43;1.30;;;22.60;99.90;23.40;100282;;;;554796;254;24135;-79
2022/09/12 05:40:41;;;;;;;2.23;1.40;;;23.70;99.90;22.40;100276;;;;555148;254;24189;-82
2022/09/12 05:43:12;;;;;;;1.40;1.30;;;23.00;99.90;22.40;100279;;;;555115;250;24131;-82
2022/09/12 05:45:37;;;;;;;3.63;1.60;;;23.00;99.90;23.50;100282;;;;554953;254;24148;-78
2022/09/12 05:48:05;;;;;;;2.50;2.13;;;23.70;98.50;24.80;100289;;;;563173;251;24146;-77
2022/09/12 05:50:33;;;;;;;3.43;1.47;;;24.90;95.10;25.90;100290;;;;555074;254;23154;-81
2022/09/12 05:53:01;;;;;;;1.77;1.03;;;26.10;91.30;27.00;100292;;;;555067;254;23184;-75
2022/09/12 05:55:30;;;;;;;2.53;1.20;;;27.10;85.50;27.90;100290;;;;555119;254;23140;-80
2022/09/12 05:57:57;;;;;;;3.80;1.50;;;28.00;79.00;28.70;100289;;;;555072;254;23145;-78
2022/09/12 06:00:25;;;;;;;5.10;1.77;;;28.80;74.10;29.60;100298;;;;555373;252;23172;-82
2022/09/12 06:02:53;;;;;;;4.57;1.50;;;30.40;64.80;30.20;100301;;;;556130;254;23163;-80
2022/09/12 06:05:21;;;;;;;2.78;1.42;;;30.40;64.70;31.00;100305;;;;555614;254;23148;-82
2022/09/12 06:07:50;;;;;;;3.17;1.45;;;31.70;58.70;31.50;100307;;;;555594;254;24189;-79
2022/09/12 06:10:21;;;;;;;2.08;1.10;;;32.20;57.20;32.00;100308;;;;555380;254;23163;-81
2022/09/12 06:12:47;;;;;;;1.60;1.30;;;32.10;57.10;32.50;100309;;;;555305;254;23161;-77
2022/09/12 06:15:15;;;;;;;2.45;1.15;;;32.70;54.60;32.80;100313;;;;555105;254;23183;-78
2022/09/12 06:17:42;;;;;;;1.52;1.10;;;33.00;53.40;33.10;100324;;;;555499;254;23277;-82
2022/09/12 06:20:10;;;;;;;1.05;1.00;;;33.40;52.70;33.40;100313;;;;555116;254;23158;-79
2022/09/12 06:22:38;;;;;;;1.58;1.15;;;33.60;51.70;33.70;100325;;;;554921;254;24142;-79
2022/09/12 06:25:10;;;;;;;2.37;1.00;;;33.90;50.80;34.30;100322;;;;555325;254;23148;-76
2022/09/12 06:27:34;;;;;;;2.95;1.27;;;34.40;49.70;34.70;100334;;;;555147;254;23182;-76
2022/09/12 06:30:06;;;;;;;1.40;1.30;;;35.30;48.70;35.20;100330;;;;555351;254;23148;-78
2022/09/12 06:32:31;;;;;;;3.28;1.02;;;35.30;48.60;35.60;100336;;;;555070;254;23169;-77
2022/09/12 06:34:59;;;;;;;1.25;1.15;;;35.80;47.60;36.10;100342;;;;555328;254;23188;-79
2022/09/12 06:37:27;;;;;;;3.28;1.30;;;36.20;47.00;36.30;100340;;;;550391;254;35518;-79
2022/09/12 06:39:55;;;;;;;1.60;1.40;;;36.40;45.80;36.40;100347;;;;555178;254;23135;-79
2022/09/12 06:42:22;;;;;;;2.53;1.37;;;36.50;46.10;36.60;100350;;;;555186;254;23148;-82
2022/09/12 06:44:50;;;;;;;2.40;1.17;;;36.70;45.60;37.40;100348;;;;555095;254;23129;-81
2022/09/12 06:47:19;;;;;;;3.97;1.70;;;37.40;45.30;38.10;100355;;;;555110;254;23212;-82
2022/09/12 06:49:46;;;;;;;1.37;1.27;;;38.10;44.40;38.60;100351;;;;555141;254;23199;-79
2022/09/12 06:52:14;;;;;;;2.28;1.40;;;38.50;43.70;38.90;100359;;;;555102;254;23151;-79
2022/09/12 06:54:43;;;;;;;3.58;1.33;;;39.20;41.90;39.10;100357;;;;555228;254;23215;-83
2022/09/12 06:57:11;;;;;;;2.78;1.40;;;38.90;42.20;38.70;100352;;;;555316;254;23134;-82
2022/09/12 06:59:39;;;;;;;1.55;1.33;;;38.90;42.20;39.10;100358;;;;555348;254;24192;-82
2022/09/12 07:02:08;;;;;;;3.67;1.65;;;39.10;42.40;39.60;100361;;;;555279;254;23163;-83
2022/09/12 07:04:36;;;;;;;1.25;1.23;;;39.60;41.50;40.10;100370;;;;555282;254;23225;-79
2022/09/12 07:07:04;;;;;;;3.65;1.30;;;40.00;41.20;40.70;100365;;;;554872;254;23177;-80
2022/09/12 07:09:31;;;;;;;3.03;1.35;;;40.50;40.50;41.20;100372;;;;555245;254;23170;-79
2022/09/12 07:12:03;;;;;;;1.15;1.05;;;41.00;40.20;41.10;100381;;;;555487;252;23136;-82
2022/09/12 07:14:27;;;;;;;2.10;1.30;;;41.20;38.90;40.40;100385;;;;556241;254;23182;-82
2022/09/12 07:16:55;;;;;;;1.12;1.10;;;40.60;39.60;40.70;100380;;;;556029;254;23148;-82
2022/09/12 07:19:23;;;;;;;2.90;1.40;;;40.70;40.10;41.10;100390;;;;555858;254;23125;-84
2022/09/12 07:21:51;;;;;;;4.47;1.70;;;40.90;39.30;41.40;100388;;;;556150;254;23156;-84
2022/09/12 07:24:19;;;;;;;2.42;1.48;;;41.30;39.00;41.40;100388;;;;556326;254;23155;-83
2022/09/12 07:26:50;;;;;;;1.40;1.30;;;41.40;38.60;41.20;100390;;;;556482;254;23244;-84
2022/09/12 07:29:18;;;;;;;2.55;1.37;;;41.30;38.50;40.70;100386;;;;556048;254;23168;-84
2022/09/12 07:31:43;;;;;;;1.42;1.30;;;41.00;38.70;41.10;100398;;;;555899;254;23163;-82
2022/09/12 07:34:11;;;;;;;5.18;1.10;;;41.00;38.70;41.50;100409;;;;556222;254;23128;-83
2022/09/12 07:36:39;;;;;;;1.33;1.27;;;41.40;38.50;40.20;100406;;;;556534;254;23139;-79
2022/09/12 07:39:07;;;;;;;3.72;1.30;;;40.70;38.10;38.90;100406;;;;556478;254;23169;-79
2022/09/12 07:41:35;;;;;;;3.40;1.20;;;39.60;40.10;37.70;100411;;;;556498;254;23136;-78
2022/09/12 07:44:05;;;;;;;1.83;1.20;;;38.50;40.40;35.10;100411;;;;556312;254;23140;-79
2022/09/12 07:46:31;;;;;;;1.48;1.25;;;36.40;41.60;34.20;100412;;;;555604;254;23158;-80
2022/09/12 07:48:58;;;;;;;1.02;0.93;;;34.90;43.80;34.50;100412;;;;555098;254;23164;-78
2022/09/12 07:51:26;;;;;;;1.42;1.20;;;34.50;44.80;34.80;100417;;;;563348;254;23135;-77
2022/09/12 07:53:57;;;;;;;1.50;0.90;;;34.80;44.30;34.90;100420;;;;555114;254;23200;-77
2022/09/12 07:56:23;;;;;;;5.97;1.17;;;34.90;44.10;34.70;100421;;;;555104;254;23152;-79
2022/09/12 07:58:51;;;;;;;1.00;1.00;;;34.40;44.30;33.80;100420;;;;555239;254;23166;-78
2022/09/12 08:01:20;;;;;;;1.27;1.10;;;33.60;45.20;33.00;100413;;;;555302;254;24159;-78
2022/09/12 08:03:51;;;;;;;0.82;0.82;;;33.60;46.00;33.60;100415;;;;562871;250;24188;-75
2022/09/12 08:06:23;;;;;;;1.87;1.15;;;33.60;46.00;34.90;100419;;;;564124;250;23276;-76
2022/09/12 08:08:52;;;;;;;1.62;1.33;;;34.60;44.80;36.10;100414;;;;562867;254;23157;-76
2022/09/12 08:11:17;;;;;;;1.75;1.08;;;35.80;43.80;37.40;100411;;;;554455;254;23179;-77
2022/09/12 08:13:45;;;;;;;1.55;1.20;;;37.20;42.70;38.50;100417;;;;557989;251;35567;-76
2022/09/12 08:16:17;;;;;;;0.88;0.85;;;38.40;41.10;39.20;100420;;;;554845;254;23153;-77
2022/09/12 08:18:41;;;;;;;4.30;1.23;;;39.30;40.30;39.70;100428;;;;554543;254;23270;-76
2022/09/12 08:21:18;;;;;;;1.45;1.35;;;40.00;39.40;40.20;100425;;;;554676;254;24230;-76
2022/09/12 08:23:49;;;;;;;1.23;1.23;;;40.50;38.80;40.80;100427;;;;554876;253;23154;-76
2022/09/12 08:26:14;;;;;;;0.90;0.90;;;41.10;38.30;40.80;100428;;;;565739;254;23139;-77
2022/09/12 08:28:42;;;;;;;4.65;1.20;;;41.20;37.30;41.00;100433;;;;555988;254;23172;-76
2022/09/12 08:31:18;;;;;;;2.67;1.00;;;41.40;37.30;40.80;100438;;;;555711;254;23215;-77
2022/09/12 08:33:46;;;;;;;1.85;1.12;;;41.40;37.30;40.50;100443;;;;555731;254;23157;-76
2022/09/12 08:36:16;;;;;;;2.08;1.30;;;41.30;37.20;40.50;100443;;;;563800;250;23191;-77
2022/09/12 08:38:44;;;;;;;0.90;0.90;;;41.10;37.20;38.00;100447;;;;555407;254;23138;-77
2022/09/12 08:41:18;;;;;;;2.72;1.33;;;39.60;37.30;35.60;100447;;;;563677;254;23180;-77
2022/09/12 08:44:11;;;;;;;5.18;1.10;;;37.50;39.00;33.90;100440;;;;555361;254;23144;-76
2022/09/12 08:47:11;;;;;;;1.45;1.37;;;34.80;42.80;34.00;100435;;;;563519;254;23182;-77
2022/09/12 08:49:51;;;;;;;10.65;1.52;;;33.60;43.60;32.40;100439;;;;555302;254;23152;-74
2022/09/12 08:52:21;;;;;;;3.90;1.00;;;33.50;43.50;31.10;100437;;;;555330;254;23162;-75
2022/09/12 08:54:53;;;;;;;3.92;1.20;;;31.40;46.60;30.30;100434;;;;555492;254;23153;-75
2022/09/12 08:57:19;;;;;;;7.40;1.62;;;30.10;48.40;29.00;100438;;;;555229;254;23156;-76
2022/09/12 08:59:47;;;;;;;2.42;1.35;;;30.00;48.40;29.30;100435;;;;555882;254;24134;-81
2022/09/12 09:02:33;;;;;;;1.60;1.50;;;29.80;49.90;28.90;100431;;;;555867;254;23156;-77
2022/09/12 09:05:15;;;;;;;1.60;1.50;;;29.50;50.50;27.80;100434;;;;563091;254;23171;-75
2022/09/12 09:07:53;;;;;;;8.30;1.93;;;28.60;51.40;26.50;100432;;;;555114;254;23239;-75
2022/09/12 09:10:38;;;;;;;2.27;1.10;;;27.50;53.60;25.60;100431;;;;563529;254;23188;-77
2022/09/12 09:16:29;;;;;;;4.13;1.10;;;27.30;55.10;30.40;100439;;;;553384;258;23213;-76
2022/09/12 09:18:59;;;;;;;1.00;1.00;;;30.30;49.60;30.30;100437;;;;545004;255;24172;-77
2022/09/12 09:21:32;;;;;;;4.15;1.55;;;31.10;47.30;29.40;100435;;;;553899;255;23156;-77
2022/09/12 09:24:06;;;;;;;2.85;2.60;;;30.40;48.50;29.90;100443;;;;552641;255;23276;-77
2022/09/12 09:26:43;;;;;;;1.10;1.00;;;30.70;48.90;29.80;100434;;;;555397;254;23199;-79
2022/09/12 09:29:19;;;;;;;2.00;1.85;;;30.70;48.40;29.50;100436;;;;545823;259;23238;-76
2022/09/12 09:31:47;;;;;;;1.92;1.35;;;30.60;48.90;28.20;100438;;;;545371;259;24212;-78
2022/09/12 09:34:15;;;;;;;5.50;1.10;;;29.50;49.70;26.80;100444;;;;545134;259;23177;-77
2022/09/12 09:36:52;;;;;;;1.62;1.20;;;28.30;50.30;27.20;100441;;;;546332;259;23181;-76
2022/09/12 09:40:04;;;;;;;3.62;1.00;;;27.90;52.10;29.70;100434;;;;555245;253;24155;-75
2022/09/12 09:42:36;;;;;;;2.72;1.00;;;29.80;50.80;30.60;100449;;;;546387;258;23226;-77
2022/09/12 09:45:05;;;;;;;3.20;1.05;;;30.70;47.40;29.20;100435;;;;565913;254;23255;-76
2022/09/12 09:47:33;;;;;;;1.58;0.90;;;30.60;47.40;28.60;100437;;;;545627;259;23232;-75
2022/09/12 09:50:01;;;;;;;3.33;1.10;;;29.90;48.90;28.00;100435;;;;554452;256;23112;-77
2022/09/12 09:52:31;;;;;;;4.77;0.93;;;29.20;50.20;28.80;100435;;;;554215;259;24225;-80
2022/09/12 09:54:58;;;;;;;4.95;0.90;;;29.50;50.70;29.20;100449;;;;563829;249;23155;-79
2022/09/12 09:57:38;;;;;;;0.70;0.70;;;30.10;49.20;29.20;100445;;;;556836;254;23156;-78
2022/09/12 10:00:27;;;;;;;1.83;1.17;;;30.10;48.80;30.50;100445;;;;556852;254;23168;-76
2022/09/12 10:03:13;;;;;;;2.58;1.10;;;31.30;47.80;32.20;100455;;;;556409;254;25333;-77
2022/09/12 10:05:58;;;;;;;2.58;1.00;;;33.10;45.60;32.80;100448;;;;555874;254;24181;-77
2022/09/12 10:08:34;;;;;;;2.28;1.15;;;34.10;44.60;32.20;100450;;;;556786;254;23178;-80
2022/09/12 10:11:21;;;;;;;1.87;1.10;;;34.00;44.10;30.60;100455;;;;556397;254;23166;-76
2022/09/12 10:13:55;;;;;;;1.10;1.00;;;32.70;44.90;29.20;100448;;;;564243;251;23167;-78
2022/09/12 10:16:28;;;;;;;4.47;1.30;;;31.10;46.20;27.90;100449;;;;556121;254;23155;-80
2022/09/12 10:18:56;;;;;;;4.78;1.35;;;29.60;48.50;27.00;100449;;;;556540;254;23167;-76
2022/09/12 10:21:26;;;;;;;1.93;0.97;;;28.30;51.10;26.40;100440;;;;556750;254;23165;-80
2022/09/12 10:23:52;;;;;;;1.53;0.90;;;27.50;52.20;26.00;100442;;;;564721;250;24207;-79
2022/09/12 10:26:21;;;;;;;1.77;1.00;;;26.30;53.70;25.40;100433;;;;564811;254;23177;-75
2022/09/12 10:28:49;;;;;;;1.87;0.80;;;26.20;53.70;24.50;100437;;;;560753;254;35606;-78
2022/09/12 10:31:18;;;;;;;1.30;1.17;;;25.50;55.60;23.80;100439;;;;557448;254;23177;-82
2022/09/12 10:33:51;;;;;;;3.53;1.53;;;24.80;56.80;23.30;100441;;;;557293;254;24138;-77
2022/09/12 10:36:17;;;;;;;3.53;1.23;;;24.10;58.20;22.70;100443;;;;557099;254;24168;-77
2022/09/12 10:38:42;;;;;;;0.80;0.80;;;23.50;59.50;22.10;100442;;;;557102;254;24222;-76
2022/09/12 10:41:10;;;;;;;2.30;1.13;;;22.80;61.10;21.60;100438;;;;556565;254;24164;-76
2022/09/12 10:43:38;;;;;;;1.27;1.00;;;22.20;62.70;21.10;100439;;;;556727;254;24152;-78
2022/09/12 10:46:15;;;;;;;1.07;0.97;;;21.70;64.20;20.80;100426;;;;556261;254;24161;-75
2022/09/12 10:48:46;;;;;;;1.70;1.20;;;21.30;65.10;20.60;100423;;;;565847;250;23200;-77
2022/09/12 10:51:23;;;;;;;3.33;0.90;;;21.00;67.90;20.50;100426;;;;565301;250;23168;-75
2022/09/12 10:53:58;;;;;;;1.57;1.10;;;20.90;68.40;20.50;100430;;;;565407;254;23155;-80
2022/09/12 10:56:37;;;;;;;4.57;0.80;;;20.90;69.60;20.20;100435;;;;556941;254;24138;-77
2022/09/12 10:59:30;;;;;;;3.87;1.20;;;20.70;68.60;19.80;100429;;;;564713;250;24159;-79
2022/09/12 11:02:28;;;;;;;4.50;1.00;;;20.40;68.40;19.40;100432;;;;557052;254;23214;-77
2022/09/12 11:05:11;;;;;;;1.47;0.97;;;20.00;70.80;19.00;100428;;;;556843;254;24182;-76
2022/09/12 11:07:57;;;;;;;0.90;0.90;;;19.60;71.80;18.70;100422;;;;555869;254;23208;-79
2022/09/12 11:10:55;;;;;;;1.83;0.90;;;19.30;73.70;18.60;100424;;;;555635;254;24154;-76
2022/09/12 11:13:47;;;;;;;3.77;1.00;;;19.10;74.80;18.40;100424;;;;555611;254;24151;-77
2022/09/12 11:16:33;;;;;;;1.63;0.90;;;18.90;75.10;18.20;100427;;;;556117;254;24195;-76
2022/09/12 11:19:34;;;;;;;2.40;0.87;;;18.70;76.40;18.00;100424;;;;544171;260;24185;-76
2022/09/12 11:22:31;;;;;;;6.20;1.27;;;18.50;77.30;17.90;100428;;;;544838;260;24225;-76
2022/09/12 11:25:23;;;;;;;2.60;1.20;;;18.40;78.60;17.80;100425;;;;566269;252;24109;-75
2022/09/12 11:28:18;;;;;;;0.87;0.87;;;18.20;80.00;17.70;100429;;;;553551;259;24183;-75
2022/09/12 11:31:10;;;;;;;2.50;1.12;;;18.20;80.80;17.60;100429;;;;540232;259;35596;-76
2022/09/12 11:33:42;;;;;;;1.63;1.07;;;18.10;81.80;17.50;100417;;;;556218;256;24147;-76
2022/09/12 11:36:17;;;;;;;0.83;0.83;;;18.00;82.10;17.40;100426;;;;559459;252;24129;-76
2022/09/12 11:38:51;;;;;;;1.40;1.07;;;17.90;82.90;17.40;100421;;;;549780;259;24181;-76
2022/09/12 11:41:28;;;;;;;3.90;1.00;;;17.80;83.20;17.30;100425;;;;545307;259;24185;-76
2022/09/12 11:44:08;;;;;;;1.10;1.00;;;17.80;83.90;17.30;100433;;;;554881;254;24182;-77
2022/09/12 11:46:36;;;;;;;7.73;2.33;;;17.80;84.10;17.20;100430;;;;553344;255;24170;-75